Time;durP1;ratioP1;P1;durP2;ratioP2;P2;SDS_P1;SDS_P2;PMS_P1;PMS_P2;Temp;Humidity;BMP_temperature;BMP_pressure;BME280_temperature;BME280_humidity;BME280_pressure;Samples;Min_cycle;Max_cycle;Signal;HPM_P1;HPM_P2
2022/04/09 00:00:46;;;;;;;0.60;0.40;;;;;;;;;;4945989;28;20502;-52
2022/04/09 00:03:12;;;;;;;2.23;0.67;;;;;;;;;;4921955;28;20474;-52
2022/04/09 00:05:38;;;;;;;0.93;0.83;;;;;;;;;;4947065;28;20537;-52
2022/04/09 00:08:05;;;;;;;1.57;1.00;;;;;;;;;;4936784;28;21510;-53
2022/04/09 00:10:31;;;;;;;1.00;0.83;;;;;;;;;;4941229;28;20446;-53
2022/04/09 00:12:57;;;;;;;1.23;1.07;;;;;;;;;;4937917;28;21022;-52
2022/04/09 00:15:23;;;;;;;1.47;0.97;;;;;;;;;;4944502;28;20471;-51
2022/04/09 00:17:55;;;;;;;1.97;1.40;;;;;;;;;;4927673;28;20940;-51
2022/04/09 00:20:21;;;;;;;1.90;1.13;;;;;;;;;;4946439;28;20535;-52
2022/04/09 00:23:10;;;;;;;1.60;1.40;;;;;;;;;;4940795;28;20513;-54
2022/04/09 00:25:36;;;;;;;1.20;1.03;;;;;;;;;;4945652;28;20447;-52
2022/04/09 00:28:02;;;;;;;1.93;1.50;;;;;;;;;;4931083;28;20451;-52
2022/04/09 00:30:28;;;;;;;3.17;1.93;;;;;;;;;;4947240;28;20541;-52
2022/04/09 00:32:54;;;;;;;2.23;1.37;;;;;;;;;;4933306;28;20510;-53
2022/04/09 00:35:20;;;;;;;2.43;1.60;;;;;;;;;;4944740;28;20438;-53
2022/04/09 00:37:52;;;;;;;2.50;1.90;;;;;;;;;;4921721;28;20293;-53
2022/04/09 00:40:18;;;;;;;2.53;1.90;;;;;;;;;;4940942;28;20435;-52
2022/04/09 00:42:49;;;;;;;2.23;1.80;;;;;;;;;;4921492;28;20486;-52
2022/04/09 00:45:15;;;;;;;2.50;1.90;;;;;;;;;;4940821;28;20442;-51
2022/04/09 00:47:41;;;;;;;1.40;1.30;;;;;;;;;;4940755;28;20438;-54
2022/04/09 00:50:08;;;;;;;1.63;1.10;;;;;;;;;;4944892;28;20609;-53
2022/04/09 00:52:59;;;;;;;1.87;1.67;;;;;;;;;;4940788;28;20883;-51
2022/04/09 00:58:21;;;;;;;1.83;1.53;;;;;;;;;;4920398;28;20442;-53
2022/04/09 01:00:47;;;;;;;1.50;1.20;;;;;;;;;;4921626;28;20443;-53
2022/04/09 01:03:16;;;;;;;1.30;1.00;;;;;;;;;;4942631;28;20896;-52
2022/04/09 01:05:43;;;;;;;1.33;1.10;;;;;;;;;;4926928;28;20454;-52
2022/04/09 01:08:09;;;;;;;2.40;2.10;;;;;;;;;;4942437;28;20497;-52
2022/04/09 01:10:35;;;;;;;2.20;1.50;;;;;;;;;;4922039;28;20455;-56
2022/04/09 01:13:01;;;;;;;2.50;1.90;;;;;;;;;;4941631;28;20446;-52
2022/04/09 01:15:27;;;;;;;3.03;2.00;;;;;;;;;;4952887;28;20446;-51
2022/04/09 01:17:53;;;;;;;1.80;1.60;;;;;;;;;;4940447;28;20453;-53
2022/04/09 01:20:20;;;;;;;2.80;2.00;;;;;;;;;;4942747;28;20439;-52
2022/04/09 01:22:46;;;;;;;3.03;2.27;;;;;;;;;;4939914;28;20471;-53
2022/04/09 01:25:24;;;;;;;2.50;1.90;;;;;;;;;;4927011;28;20442;-52
2022/04/09 01:27:50;;;;;;;1.90;1.80;;;;;;;;;;4974002;28;20455;-52
2022/04/09 01:30:17;;;;;;;2.73;2.10;;;;;;;;;;4924055;28;20589;-52
2022/04/09 01:32:43;;;;;;;3.17;1.70;;;;;;;;;;4941539;28;20466;-53
2022/04/09 01:35:09;;;;;;;3.50;2.07;;;;;;;;;;4939201;28;20426;-52
2022/04/09 01:37:35;;;;;;;2.10;1.70;;;;;;;;;;4941694;28;20912;-53
2022/04/09 01:40:01;;;;;;;2.63;2.30;;;;;;;;;;4924893;28;20455;-53
2022/04/09 01:42:27;;;;;;;6.70;2.87;;;;;;;;;;4939422;28;20485;-52
2022/04/09 01:44:53;;;;;;;2.90;2.10;;;;;;;;;;4934523;28;20526;-52
2022/04/09 01:47:19;;;;;;;2.87;1.97;;;;;;;;;;4946124;28;20439;-53
2022/04/09 01:49:47;;;;;;;6.10;2.07;;;;;;;;;;4925851;28;20446;-52
2022/04/09 01:52:14;;;;;;;3.43;2.13;;;;;;;;;;4936201;28;20455;-52
2022/04/09 01:54:39;;;;;;;2.90;1.83;;;;;;;;;;4946264;28;20439;-51
2022/04/09 01:57:05;;;;;;;4.27;3.10;;;;;;;;;;4938362;28;20454;-52
2022/04/09 01:59:31;;;;;;;4.27;1.97;;;;;;;;;;4939301;28;20444;-52
2022/04/09 02:01:57;;;;;;;3.60;2.17;;;;;;;;;;4936135;28;20963;-52
2022/04/09 02:04:23;;;;;;;2.63;1.97;;;;;;;;;;4944830;28;20443;-52
2022/04/09 02:06:50;;;;;;;3.40;1.83;;;;;;;;;;4936486;28;20443;-53
2022/04/09 02:09:16;;;;;;;4.00;2.80;;;;;;;;;;4941374;28;20443;-52
2022/04/09 02:11:42;;;;;;;3.83;2.40;;;;;;;;;;4926000;28;20445;-51
2022/04/09 02:14:11;;;;;;;2.77;2.43;;;;;;;;;;4941627;28;20447;-53
2022/04/09 02:16:37;;;;;;;5.47;2.70;;;;;;;;;;4937690;28;20471;-51
2022/04/09 02:19:03;;;;;;;5.37;2.70;;;;;;;;;;4957991;28;20446;-52
2022/04/09 02:21:29;;;;;;;4.03;2.40;;;;;;;;;;4956393;28;20550;-53
2022/04/09 02:23:55;;;;;;;5.70;3.33;;;;;;;;;;4944482;28;21036;-53
2022/04/09 02:26:21;;;;;;;3.67;3.10;;;;;;;;;;4914443;28;21030;-52
2022/04/09 02:28:49;;;;;;;2.87;2.50;;;;;;;;;;4946912;28;20988;-52
2022/04/09 02:31:27;;;;;;;4.77;3.60;;;;;;;;;;4932110;28;20438;-54
2022/04/09 02:33:54;;;;;;;4.70;2.60;;;;;;;;;;4945749;28;20557;-52
2022/04/09 02:36:21;;;;;;;7.70;3.80;;;;;;;;;;4914793;28;20435;-52
2022/04/09 02:38:47;;;;;;;4.20;3.80;;;;;;;;;;4946913;28;20447;-53
2022/04/09 02:41:13;;;;;;;3.87;2.80;;;;;;;;;;4921085;28;20502;-53
2022/04/09 02:43:43;;;;;;;3.90;3.43;;;;;;;;;;4949219;28;20487;-52
2022/04/09 02:46:09;;;;;;;3.87;3.00;;;;;;;;;;4923377;28;20458;-52
2022/04/09 02:48:35;;;;;;;4.77;2.83;;;;;;;;;;4942274;28;20964;-52
2022/04/09 02:51:01;;;;;;;4.50;3.47;;;;;;;;;;4924459;28;20439;-51
2022/04/09 02:53:27;;;;;;;3.80;3.27;;;;;;;;;;4948093;28;20439;-53
2022/04/09 02:55:54;;;;;;;5.00;3.20;;;;;;;;;;4943438;28;20779;-52
2022/04/09 02:58:19;;;;;;;4.50;3.23;;;;;;;;;;4947716;28;20254;-51
2022/04/09 03:00:45;;;;;;;3.87;3.50;;;;;;;;;;4921055;28;20510;-53
2022/04/09 03:03:11;;;;;;;3.90;2.73;;;;;;;;;;4945818;28;21103;-52
2022/04/09 03:05:40;;;;;;;3.67;2.93;;;;;;;;;;4928690;28;20446;-53
2022/04/09 03:08:06;;;;;;;2.40;1.63;;;;;;;;;;4946922;28;20961;-53
2022/04/09 03:10:32;;;;;;;4.00;3.23;;;;;;;;;;4915884;28;20626;-52
2022/04/09 03:12:59;;;;;;;3.70;2.90;;;;;;;;;;4941191;28;21001;-52
2022/04/09 03:15:26;;;;;;;3.10;2.80;;;;;;;;;;4940356;28;20463;-54
2022/04/09 03:17:52;;;;;;;3.73;2.90;;;;;;;;;;4943390;28;20484;-53
2022/04/09 03:20:25;;;;;;;4.03;2.90;;;;;;;;;;4926076;28;20450;-53
2022/04/09 03:22:53;;;;;;;3.83;3.00;;;;;;;;;;4941347;28;20497;-53
2022/04/09 03:25:20;;;;;;;3.90;3.10;;;;;;;;;;4942425;28;20514;-54
2022/04/09 03:27:46;;;;;;;4.27;2.97;;;;;;;;;;4941772;28;21034;-53
2022/04/09 03:30:12;;;;;;;4.70;3.30;;;;;;;;;;4941828;28;20902;-52
2022/04/09 03:32:38;;;;;;;6.27;3.90;;;;;;;;;;4942568;28;20446;-52
2022/04/09 03:35:40;;;;;;;3.80;2.67;;;;;;;;;;4944508;28;20439;-53
2022/04/09 03:38:12;;;;;;;5.87;4.27;;;;;;;;;;4946595;28;20443;-52
2022/04/09 03:40:38;;;;;;;6.13;4.07;;;;;;;;;;4925440;28;21635;-53
2022/04/09 03:43:04;;;;;;;7.50;4.63;;;;;;;;;;4961577;28;20478;-52
2022/04/09 03:45:30;;;;;;;6.27;4.40;;;;;;;;;;4945492;28;21074;-52
2022/04/09 03:47:56;;;;;;;13.30;5.23;;;;;;;;;;4942171;28;20508;-54
2022/04/09 03:50:30;;;;;;;7.83;5.27;;;;;;;;;;4921747;28;20515;-52
2022/04/09 03:52:57;;;;;;;9.40;5.20;;;;;;;;;;4946351;28;20808;-52
2022/04/09 03:55:23;;;;;;;9.53;7.40;;;;;;;;;;4943635;28;20428;-51
2022/04/09 03:57:49;;;;;;;11.73;7.77;;;;;;;;;;4946789;28;20446;-52
2022/04/09 04:00:20;;;;;;;9.93;7.53;;;;;;;;;;4944058;28;20458;-53
2022/04/09 04:02:49;;;;;;;10.40;7.23;;;;;;;;;;4938086;28;20482;-51
2022/04/09 04:08:19;;;;;;;13.30;9.17;;;;;;;;;;4929072;28;20795;-51
2022/04/09 04:11:03;;;;;;;13.63;8.57;;;;;;;;;;4939314;28;20443;-52
2022/04/09 04:13:38;;;;;;;15.13;9.30;;;;;;;;;;4937331;28;20439;-52
2022/04/09 04:16:05;;;;;;;19.13;9.53;;;;;;;;;;4929740;28;20793;-52
2022/04/09 04:18:31;;;;;;;14.77;9.13;;;;;;;;;;4940110;28;20542;-51
2022/04/09 04:21:06;;;;;;;17.57;11.30;;;;;;;;;;4931990;28;20453;-53
2022/04/09 04:23:38;;;;;;;16.50;9.60;;;;;;;;;;4941337;28;20561;-51
2022/04/09 04:26:04;;;;;;;25.47;12.17;;;;;;;;;;4940807;28;21159;-51
2022/04/09 04:28:30;;;;;;;19.17;10.87;;;;;;;;;;4939763;28;20475;-51
2022/04/09 04:30:56;;;;;;;16.20;10.17;;;;;;;;;;4939039;28;21356;-52
2022/04/09 04:33:22;;;;;;;15.90;10.60;;;;;;;;;;4940752;28;20959;-51
2022/04/09 04:38:52;;;;;;;15.90;9.70;;;;;;;;;;4910460;28;20518;-53
2022/04/09 04:41:18;;;;;;;14.60;9.00;;;;;;;;;;4939737;28;20984;-52
2022/04/09 04:43:49;;;;;;;16.93;9.67;;;;;;;;;;4920740;28;20479;-52
2022/04/09 04:46:15;;;;;;;14.10;9.40;;;;;;;;;;4944722;28;20439;-53
2022/04/09 04:48:42;;;;;;;12.67;8.53;;;;;;;;;;4919690;28;20467;-52
2022/04/09 04:51:08;;;;;;;18.90;10.10;;;;;;;;;;4947140;28;20449;-52
2022/04/09 04:53:34;;;;;;;17.77;10.27;;;;;;;;;;4922859;28;20550;-52
2022/04/09 04:56:02;;;;;;;13.17;9.53;;;;;;;;;;4946469;28;20526;-50
2022/04/09 04:58:27;;;;;;;14.43;9.07;;;;;;;;;;4935537;28;20530;-50
2022/04/09 05:00:53;;;;;;;15.60;10.03;;;;;;;;;;4943157;28;20591;-53
2022/04/09 05:03:19;;;;;;;16.03;11.27;;;;;;;;;;4917541;28;20579;-50
2022/04/09 05:05:45;;;;;;;14.33;9.23;;;;;;;;;;4948318;28;20439;-51
2022/04/09 05:08:11;;;;;;;13.00;8.70;;;;;;;;;;4909461;28;20953;-51
2022/04/09 05:10:40;;;;;;;12.43;7.87;;;;;;;;;;4969182;28;20546;-50
2022/04/09 05:13:07;;;;;;;22.00;9.57;;;;;;;;;;4903187;28;20916;-54
2022/04/09 05:15:33;;;;;;;18.17;10.23;;;;;;;;;;4939502;28;20517;-51
2022/04/09 05:18:01;;;;;;;17.03;9.27;;;;;;;;;;4923597;28;20532;-52
2022/04/09 05:20:27;;;;;;;17.93;8.33;;;;;;;;;;4944131;28;20447;-50
2022/04/09 05:22:55;;;;;;;16.10;9.53;;;;;;;;;;4910900;28;20474;-52
2022/04/09 05:25:21;;;;;;;14.57;8.93;;;;;;;;;;4926777;28;20427;-51
2022/04/09 05:27:52;;;;;;;14.40;8.93;;;;;;;;;;4963441;28;20440;-52
2022/04/09 05:30:19;;;;;;;18.50;10.70;;;;;;;;;;4926402;28;20507;-51
2022/04/09 05:32:46;;;;;;;11.80;8.93;;;;;;;;;;4955637;28;20459;-57
2022/04/09 05:35:12;;;;;;;11.57;7.30;;;;;;;;;;4943875;28;20451;-52
2022/04/09 05:40:42;;;;;;;17.13;9.27;;;;;;;;;;4939153;28;20541;-51
2022/04/09 05:43:14;;;;;;;14.00;9.17;;;;;;;;;;4931638;28;22068;-51
2022/04/09 05:45:41;;;;;;;15.17;9.03;;;;;;;;;;4939830;28;20443;-51
2022/04/09 05:48:12;;;;;;;12.77;8.53;;;;;;;;;;4931865;28;20486;-51
2022/04/09 05:50:41;;;;;;;15.10;7.60;;;;;;;;;;4938169;28;20438;-52
2022/04/09 05:53:28;;;;;;;14.33;8.80;;;;;;;;;;4931473;28;20960;-53
2022/04/09 05:55:55;;;;;;;14.00;7.80;;;;;;;;;;4945419;28;20470;-51
2022/04/09 05:58:21;;;;;;;13.20;8.30;;;;;;;;;;4939947;28;21007;-50
2022/04/09 06:00:47;;;;;;;10.67;7.97;;;;;;;;;;4938711;28;20452;-51
2022/04/09 06:03:28;;;;;;;11.80;7.67;;;;;;;;;;4930924;28;21044;-51
2022/04/09 06:05:58;;;;;;;18.70;9.90;;;;;;;;;;4944905;28;20973;-50
2022/04/09 06:08:24;;;;;;;10.57;7.27;;;;;;;;;;4938526;28;20423;-51
2022/04/09 06:10:50;;;;;;;11.13;7.13;;;;;;;;;;4937640;28;20448;-52
2022/04/09 06:13:52;;;;;;;9.30;7.10;;;;;;;;;;4944434;28;20757;-52
2022/04/09 06:16:21;;;;;;;13.37;7.70;;;;;;;;;;4942994;28;20427;-51
2022/04/09 06:18:58;;;;;;;17.90;7.43;;;;;;;;;;4939716;28;20466;-51
2022/04/09 06:21:29;;;;;;;13.80;7.30;;;;;;;;;;4933667;28;20452;-52
2022/04/09 06:24:26;;;;;;;14.40;7.90;;;;;;;;;;4937318;28;20517;-51
2022/04/09 06:26:52;;;;;;;12.33;8.37;;;;;;;;;;4944082;28;20465;-51
2022/04/09 06:29:18;;;;;;;10.30;7.20;;;;;;;;;;4944047;28;21036;-52
2022/04/09 06:31:47;;;;;;;10.33;6.90;;;;;;;;;;4948916;28;20446;-52
2022/04/09 06:34:14;;;;;;;9.20;6.47;;;;;;;;;;4940886;28;20439;-51
2022/04/09 06:36:39;;;;;;;8.20;6.50;;;;;;;;;;4946568;28;20459;-51
2022/04/09 06:39:25;;;;;;;15.10;7.20;;;;;;;;;;4929213;28;22645;-52
2022/04/09 06:41:51;;;;;;;13.70;7.40;;;;;;;;;;4937834;28;21551;-51
2022/04/09 06:44:42;;;;;;;11.33;7.07;;;;;;;;;;4932108;28;20448;-53
2022/04/09 06:47:09;;;;;;;13.57;8.00;;;;;;;;;;4940782;28;20435;-51
2022/04/09 06:49:37;;;;;;;11.83;7.87;;;;;;;;;;4922445;28;20446;-55
2022/04/09 06:52:03;;;;;;;9.87;7.37;;;;;;;;;;4936218;28;20968;-52
2022/04/09 06:54:29;;;;;;;12.87;7.77;;;;;;;;;;4937997;28;20458;-51
2022/04/09 06:56:55;;;;;;;9.23;6.63;;;;;;;;;;4937761;28;20447;-51
2022/04/09 06:59:28;;;;;;;9.40;6.90;;;;;;;;;;4918992;28;20488;-52
2022/04/09 07:01:54;;;;;;;12.23;7.80;;;;;;;;;;4907744;28;21115;-52
2022/04/09 07:04:20;;;;;;;10.53;6.67;;;;;;;;;;4934628;28;20647;-52
2022/04/09 07:06:49;;;;;;;10.97;5.73;;;;;;;;;;4928646;28;20470;-52
2022/04/09 07:09:20;;;;;;;9.63;5.73;;;;;;;;;;4957418;28;20857;-52
2022/04/09 07:12:08;;;;;;;12.07;7.20;;;;;;;;;;4929531;28;20905;-52
2022/04/09 07:14:36;;;;;;;8.83;5.70;;;;;;;;;;4925817;28;20459;-51
2022/04/09 07:17:30;;;;;;;11.63;6.73;;;;;;;;;;4932159;28;20435;-53
2022/04/09 07:19:58;;;;;;;7.17;6.33;;;;;;;;;;4924657;28;20597;-52
2022/04/09 07:22:25;;;;;;;8.13;6.30;;;;;;;;;;4905805;28;20628;-51
2022/04/09 07:24:51;;;;;;;9.60;6.70;;;;;;;;;;4929808;28;20440;-51
2022/04/09 07:27:17;;;;;;;10.70;7.33;;;;;;;;;;4922635;28;21303;-52
2022/04/09 07:29:43;;;;;;;10.97;6.40;;;;;;;;;;4932052;28;20846;-52
2022/04/09 07:32:09;;;;;;;10.67;6.27;;;;;;;;;;4909623;28;20455;-52
2022/04/09 07:34:35;;;;;;;13.47;6.30;;;;;;;;;;4930816;28;20517;-52
2022/04/09 07:37:01;;;;;;;9.87;6.33;;;;;;;;;;4922918;28;20718;-51
2022/04/09 07:39:27;;;;;;;10.23;5.93;;;;;;;;;;4926909;28;20465;-49
2022/04/09 07:41:54;;;;;;;9.03;5.43;;;;;;;;;;4926318;28;20811;-53
2022/04/09 07:44:22;;;;;;;10.40;6.20;;;;;;;;;;4917895;28;20978;-52
2022/04/09 07:46:48;;;;;;;8.47;5.33;;;;;;;;;;4922044;28;21118;-52
2022/04/09 07:49:14;;;;;;;8.03;5.50;;;;;;;;;;4942056;28;20451;-51
2022/04/09 07:51:58;;;;;;;9.40;4.83;;;;;;;;;;4938854;28;20450;-52
2022/04/09 07:54:24;;;;;;;7.80;5.43;;;;;;;;;;4941319;28;20444;-51
2022/04/09 07:56:51;;;;;;;7.50;5.30;;;;;;;;;;4914886;28;20497;-52
2022/04/09 07:59:17;;;;;;;9.43;6.27;;;;;;;;;;4933818;28;21000;-52
2022/04/09 08:01:43;;;;;;;7.47;5.90;;;;;;;;;;4919318;28;20443;-52
2022/04/09 08:04:09;;;;;;;10.23;4.90;;;;;;;;;;4940078;28;20766;-51
2022/04/09 08:06:35;;;;;;;6.87;5.17;;;;;;;;;;4928859;28;21162;-51
2022/04/09 08:09:01;;;;;;;6.53;5.10;;;;;;;;;;4943768;28;20486;-51
2022/04/09 08:11:28;;;;;;;5.87;4.50;;;;;;;;;;4916334;28;20526;-51
2022/04/09 08:13:54;;;;;;;7.73;4.90;;;;;;;;;;4932144;28;20443;-51
2022/04/09 08:16:20;;;;;;;7.03;4.83;;;;;;;;;;4928865;28;21160;-53
2022/04/09 08:18:46;;;;;;;7.63;4.70;;;;;;;;;;4942167;28;20435;-51
2022/04/09 08:21:13;;;;;;;7.27;4.33;;;;;;;;;;4941159;28;20435;-52
2022/04/09 08:23:39;;;;;;;7.43;4.77;;;;;;;;;;4941091;28;21060;-52
2022/04/09 08:26:06;;;;;;;6.50;4.33;;;;;;;;;;4917627;28;20516;-52
2022/04/09 08:28:33;;;;;;;7.10;3.80;;;;;;;;;;4941586;28;20465;-52
2022/04/09 08:30:59;;;;;;;6.63;4.00;;;;;;;;;;4916956;28;20477;-51
2022/04/09 08:33:25;;;;;;;7.07;3.93;;;;;;;;;;4937593;28;20461;-50
2022/04/09 08:35:52;;;;;;;6.70;4.00;;;;;;;;;;4930702;28;20544;-52
2022/04/09 08:38:18;;;;;;;6.67;4.40;;;;;;;;;;4939448;28;20533;-52
2022/04/09 08:40:44;;;;;;;3.70;3.17;;;;;;;;;;4917637;28;20923;-52
2022/04/09 08:43:23;;;;;;;5.00;4.50;;;;;;;;;;4933094;28;20297;-53
2022/04/09 08:45:49;;;;;;;5.50;3.13;;;;;;;;;;4922280;28;21020;-53
2022/04/09 08:48:16;;;;;;;4.07;3.67;;;;;;;;;;4940007;28;20459;-53
2022/04/09 08:50:43;;;;;;;4.80;3.30;;;;;;;;;;4944251;28;20493;-52
2022/04/09 08:53:10;;;;;;;7.47;4.07;;;;;;;;;;4937794;28;20957;-53
2022/04/09 08:55:36;;;;;;;4.77;3.97;;;;;;;;;;4932420;28;20449;-52
2022/04/09 08:58:03;;;;;;;10.23;5.13;;;;;;;;;;4936567;28;20439;-52
2022/04/09 09:00:29;;;;;;;11.37;4.70;;;;;;;;;;4925551;28;21071;-52
2022/04/09 09:02:56;;;;;;;5.40;3.53;;;;;;;;;;4920136;28;21012;-52
2022/04/09 09:05:28;;;;;;;7.63;4.17;;;;;;;;;;4941936;28;20801;-52
2022/04/09 09:07:54;;;;;;;10.00;4.20;;;;;;;;;;4935096;28;20427;-52
2022/04/09 09:10:24;;;;;;;5.07;3.50;;;;;;;;;;4942851;28;20968;-52
2022/04/09 09:12:57;;;;;;;5.77;3.77;;;;;;;;;;4916943;28;21091;-51
2022/04/09 09:15:23;;;;;;;7.50;3.27;;;;;;;;;;4932595;28;20489;-53
2022/04/09 09:17:50;;;;;;;4.30;3.73;;;;;;;;;;4935071;28;20449;-52
2022/04/09 09:20:16;;;;;;;8.13;3.63;;;;;;;;;;4972211;28;20443;-52
2022/04/09 09:22:42;;;;;;;6.33;3.13;;;;;;;;;;4918529;28;21022;-52
2022/04/09 09:25:09;;;;;;;13.13;4.47;;;;;;;;;;4945780;28;20431;-51
2022/04/09 09:27:35;;;;;;;6.27;3.40;;;;;;;;;;4906706;28;20783;-51
2022/04/09 09:30:01;;;;;;;3.67;2.80;;;;;;;;;;4940675;28;20438;-52
2022/04/09 09:32:29;;;;;;;8.10;3.77;;;;;;;;;;4914382;28;20466;-56
2022/04/09 09:35:01;;;;;;;9.40;2.60;;;;;;;;;;4940434;28;21178;-51
2022/04/09 09:37:29;;;;;;;6.80;4.13;;;;;;;;;;4915129;28;21307;-52
2022/04/09 09:39:55;;;;;;;6.30;2.73;;;;;;;;;;4936094;28;20471;-52
2022/04/09 09:42:26;;;;;;;6.87;3.20;;;;;;;;;;4920673;28;20932;-51
2022/04/09 09:44:52;;;;;;;5.90;2.80;;;;;;;;;;4968299;28;20438;-51
2022/04/09 09:47:18;;;;;;;5.50;2.63;;;;;;;;;;4935882;28;20452;-51
2022/04/09 09:49:57;;;;;;;3.57;3.10;;;;;;;;;;4922283;28;21064;-52
2022/04/09 09:52:27;;;;;;;4.80;2.47;;;;;;;;;;4935630;28;20948;-50
2022/04/09 09:54:57;;;;;;;4.70;2.40;;;;;;;;;;4914639;28;20466;-50
2022/04/09 09:57:24;;;;;;;4.07;2.60;;;;;;;;;;4939872;28;20436;-51
2022/04/09 09:59:53;;;;;;;4.03;2.87;;;;;;;;;;4926569;28;20626;-52
2022/04/09 10:02:20;;;;;;;4.67;2.57;;;;;;;;;;4933389;28;20547;-52
2022/04/09 10:04:49;;;;;;;5.40;2.70;;;;;;;;;;4921662;28;20461;-52
2022/04/09 10:07:15;;;;;;;4.30;3.90;;;;;;;;;;4943366;28;20602;-52
2022/04/09 10:09:50;;;;;;;3.90;2.93;;;;;;;;;;4896191;28;20486;-52
2022/04/09 10:12:23;;;;;;;8.67;3.30;;;;;;;;;;4936360;28;20434;-51
2022/04/09 10:14:58;;;;;;;11.43;3.40;;;;;;;;;;4916807;28;20463;-52
2022/04/09 10:17:25;;;;;;;5.37;3.20;;;;;;;;;;4938789;28;22035;-51
2022/04/09 10:19:54;;;;;;;6.00;2.80;;;;;;;;;;4930352;28;20455;-52
2022/04/09 10:22:22;;;;;;;4.13;2.57;;;;;;;;;;4933634;28;20924;-52
2022/04/09 10:24:49;;;;;;;7.43;2.60;;;;;;;;;;4926586;28;20466;-51
2022/04/09 10:27:38;;;;;;;4.77;1.93;;;;;;;;;;4942784;28;20446;-52
2022/04/09 10:30:06;;;;;;;4.43;2.43;;;;;;;;;;4933785;28;20447;-52
2022/04/09 10:32:42;;;;;;;6.33;2.27;;;;;;;;;;4940911;28;20555;-50
2022/04/09 10:35:27;;;;;;;5.10;3.13;;;;;;;;;;4920658;28;20537;-52
2022/04/09 10:38:13;;;;;;;7.50;2.77;;;;;;;;;;4922236;28;20445;-52
2022/04/09 10:41:02;;;;;;;4.10;2.87;;;;;;;;;;4950221;28;20446;-52
2022/04/09 10:43:38;;;;;;;3.57;2.40;;;;;;;;;;4931966;28;20491;-52
2022/04/09 10:46:08;;;;;;;8.03;2.30;;;;;;;;;;4925820;28;21285;-53
2022/04/09 10:48:36;;;;;;;5.63;2.10;;;;;;;;;;4939266;28;20432;-52
2022/04/09 10:51:23;;;;;;;10.13;2.20;;;;;;;;;;4928034;28;20451;-53
2022/04/09 10:53:50;;;;;;;2.83;2.27;;;;;;;;;;4936310;28;21214;-52
2022/04/09 10:56:26;;;;;;;5.97;2.80;;;;;;;;;;4935590;28;20457;-51
2022/04/09 10:59:02;;;;;;;6.00;2.50;;;;;;;;;;4940840;28;20797;-52
2022/04/09 11:01:46;;;;;;;6.30;3.17;;;;;;;;;;4917876;28;20462;-53
2022/04/09 11:04:28;;;;;;;3.67;2.50;;;;;;;;;;4940905;28;20447;-52
2022/04/09 11:07:03;;;;;;;4.67;2.40;;;;;;;;;;4923908;28;20431;-52
2022/04/09 11:09:46;;;;;;;3.20;2.80;;;;;;;;;;4936983;28;20521;-52
2022/04/09 11:12:13;;;;;;;4.97;3.00;;;;;;;;;;4918530;28;20487;-52
2022/04/09 11:14:47;;;;;;;7.50;2.40;;;;;;;;;;4937345;28;20474;-52
2022/04/09 11:17:20;;;;;;;4.27;2.50;;;;;;;;;;4917949;28;20441;-52
2022/04/09 11:19:47;;;;;;;5.50;2.43;;;;;;;;;;4938309;28;20443;-52
2022/04/09 11:22:13;;;;;;;4.77;2.60;;;;;;;;;;4918251;28;20482;-52
2022/04/09 11:24:39;;;;;;;6.90;2.30;;;;;;;;;;4940276;28;20765;-53
2022/04/09 11:27:06;;;;;;;3.77;2.40;;;;;;;;;;4933521;28;20443;-52
2022/04/09 11:29:33;;;;;;;4.63;2.97;;;;;;;;;;4947453;28;20435;-51
2022/04/09 11:31:59;;;;;;;3.73;2.47;;;;;;;;;;4904506;28;21146;-52
2022/04/09 11:34:27;;;;;;;6.53;2.20;;;;;;;;;;4942074;28;20953;-51
2022/04/09 11:37:15;;;;;;;4.70;2.47;;;;;;;;;;4939389;28;20438;-52
2022/04/09 11:39:44;;;;;;;2.60;2.00;;;;;;;;;;4930677;28;20618;-51
2022/04/09 11:42:38;;;;;;;2.50;1.70;;;;;;;;;;4929731;28;20482;-52
2022/04/09 11:45:06;;;;;;;2.43;2.20;;;;;;;;;;4940945;28;20544;-54
2022/04/09 11:47:32;;;;;;;7.37;2.63;;;;;;;;;;4925966;28;23343;-53
2022/04/09 11:49:57;;;;;;;4.17;2.17;;;;;;;;;;4941606;28;20450;-52
2022/04/09 11:52:32;;;;;;;4.13;1.93;;;;;;;;;;4918700;28;20787;-53
2022/04/09 11:55:01;;;;;;;2.87;2.27;;;;;;;;;;4943003;28;20454;-53
2022/04/09 11:57:32;;;;;;;2.67;2.37;;;;;;;;;;4934031;28;20435;-53
2022/04/09 11:59:58;;;;;;;2.23;1.80;;;;;;;;;;4943982;28;20439;-53
2022/04/09 12:02:53;;;;;;;6.60;1.80;;;;;;;;;;4942316;28;21140;-54
2022/04/09 12:05:26;;;;;;;8.23;2.93;;;;;;;;;;4944991;28;20497;-53
2022/04/09 12:07:52;;;;;;;5.30;2.03;;;;;;;;;;4920290;28;20875;-52
2022/04/09 12:10:24;;;;;;;5.30;2.93;;;;;;;;;;4942334;28;20447;-52
2022/04/09 12:13:00;;;;;;;2.80;2.27;;;;;;;;;;4925752;28;20458;-53
2022/04/09 12:15:32;;;;;;;2.83;2.00;;;;;;;;;;4928236;28;20438;-52
2022/04/09 12:17:59;;;;;;;3.50;2.53;;;;;;;;;;4941388;28;20909;-52
2022/04/09 12:20:31;;;;;;;2.80;2.60;;;;;;;;;;4925105;28;20987;-52
2022/04/09 12:22:57;;;;;;;3.67;2.07;;;;;;;;;;4943923;28;20520;-53
2022/04/09 12:25:33;;;;;;;5.70;2.67;;;;;;;;;;4925722;28;20451;-52
2022/04/09 12:27:59;;;;;;;8.03;2.50;;;;;;;;;;4935654;28;20442;-52
2022/04/09 12:30:47;;;;;;;6.23;1.70;;;;;;;;;;4927001;28;20457;-52
2022/04/09 12:36:22;;;;;;;3.17;1.43;;;;;;;;;;4914073;28;20446;-53
2022/04/09 12:39:05;;;;;;;4.87;2.37;;;;;;;;;;4925168;28;20582;-54
2022/04/09 12:42:00;;;;;;;4.67;1.87;;;;;;;;;;4943455;28;21054;-53
2022/04/09 12:44:27;;;;;;;3.67;2.27;;;;;;;;;;4933185;28;20458;-51
2022/04/09 12:46:53;;;;;;;4.33;1.97;;;;;;;;;;4915226;28;20427;-52
2022/04/09 12:49:20;;;;;;;3.40;2.10;;;;;;;;;;4939048;28;20437;-52
2022/04/09 12:51:46;;;;;;;5.73;2.00;;;;;;;;;;4922631;28;20435;-54
2022/04/09 12:54:12;;;;;;;6.20;2.57;;;;;;;;;;4944783;28;20901;-52
2022/04/09 12:56:39;;;;;;;4.40;2.07;;;;;;;;;;4927012;28;20890;-56
2022/04/09 12:59:05;;;;;;;4.97;2.20;;;;;;;;;;4939519;28;20574;-53
2022/04/09 13:01:31;;;;;;;2.70;1.90;;;;;;;;;;4934446;28;20565;-52
2022/04/09 13:03:58;;;;;;;5.17;2.60;;;;;;;;;;4942875;28;20487;-52
2022/04/09 13:09:27;;;;;;;6.77;2.20;;;;;;;;;;4937055;28;21415;-52
2022/04/09 13:11:53;;;;;;;7.30;1.90;;;;;;;;;;4922851;28;20451;-51
2022/04/09 13:14:19;;;;;;;3.33;1.83;;;;;;;;;;4937430;28;20446;-51
2022/04/09 13:16:45;;;;;;;4.03;2.10;;;;;;;;;;4929381;28;20507;-52
2022/04/09 13:19:11;;;;;;;6.20;2.43;;;;;;;;;;4941811;28;20482;-51
2022/04/09 13:21:37;;;;;;;5.70;1.80;;;;;;;;;;4936600;28;20549;-52
2022/04/09 13:24:15;;;;;;;2.37;1.70;;;;;;;;;;4938491;28;20499;-53
2022/04/09 13:26:41;;;;;;;4.53;1.87;;;;;;;;;;4925298;28;20463;-52
2022/04/09 13:29:07;;;;;;;4.83;1.93;;;;;;;;;;4941906;28;20992;-52
2022/04/09 13:31:33;;;;;;;6.87;2.10;;;;;;;;;;4920222;28;21874;-52
2022/04/09 13:34:00;;;;;;;5.53;2.10;;;;;;;;;;4938784;28;20940;-53
2022/04/09 13:36:26;;;;;;;5.30;1.50;;;;;;;;;;4907957;28;20439;-50
2022/04/09 13:38:52;;;;;;;2.30;1.67;;;;;;;;;;4946621;28;20447;-52
2022/04/09 13:41:26;;;;;;;2.30;1.67;;;;;;;;;;4898062;28;22931;-53
2022/04/09 13:43:52;;;;;;;3.60;1.90;;;;;;;;;;4941755;28;20218;-52
2022/04/09 13:46:26;;;;;;;5.03;1.97;;;;;;;;;;4927995;28;20436;-53
2022/04/09 13:48:54;;;;;;;3.93;1.70;;;;;;;;;;4888966;28;21035;-54
2022/04/09 13:51:28;;;;;;;6.13;1.93;;;;;;;;;;4932427;28;20439;-52
2022/04/09 13:53:58;;;;;;;5.73;2.20;;;;;;;;;;4926103;28;20450;-53
2022/04/09 13:56:25;;;;;;;2.73;2.10;;;;;;;;;;4940022;28;20463;-53
2022/04/09 13:59:12;;;;;;;6.43;2.20;;;;;;;;;;4930175;28;20431;-53
2022/04/09 14:01:38;;;;;;;3.17;2.00;;;;;;;;;;4937503;28;20469;-51
2022/04/09 14:04:09;;;;;;;3.63;1.60;;;;;;;;;;4916606;28;20479;-53
2022/04/09 14:06:35;;;;;;;8.17;3.20;;;;;;;;;;4915987;28;20447;-52
2022/04/09 14:09:00;;;;;;;8.00;2.30;;;;;;;;;;4941289;28;20962;-51
2022/04/09 14:11:27;;;;;;;7.10;1.97;;;;;;;;;;4928035;28;20540;-52
2022/04/09 14:13:53;;;;;;;3.10;2.03;;;;;;;;;;4937492;28;20455;-51
2022/04/09 14:16:20;;;;;;;3.83;2.80;;;;;;;;;;4912934;28;20501;-52
2022/04/09 14:18:46;;;;;;;3.53;1.83;;;;;;;;;;4939182;28;20539;-51
2022/04/09 14:21:12;;;;;;;3.27;1.60;;;;;;;;;;4899048;28;21005;-51
2022/04/09 14:23:38;;;;;;;7.87;1.77;;;;;;;;;;4939793;28;20533;-52
2022/04/09 14:26:04;;;;;;;7.30;2.10;;;;;;;;;;4914655;28;20956;-52
2022/04/09 14:28:31;;;;;;;2.83;1.70;;;;;;;;;;4922461;28;20514;-52
2022/04/09 14:30:57;;;;;;;4.73;2.13;;;;;;;;;;4935159;28;20507;-52
2022/04/09 14:33:23;;;;;;;4.43;2.07;;;;;;;;;;4922282;28;20447;-53
2022/04/09 14:35:50;;;;;;;5.87;2.20;;;;;;;;;;4937073;28;20450;-51
2022/04/09 14:38:16;;;;;;;2.60;1.57;;;;;;;;;;4947812;28;20830;-49
2022/04/09 14:40:42;;;;;;;4.27;1.93;;;;;;;;;;4947580;28;20441;-50
2022/04/09 14:43:08;;;;;;;3.60;1.97;;;;;;;;;;4933411;28;20486;-52
2022/04/09 14:45:34;;;;;;;3.67;2.17;;;;;;;;;;4938614;28;20508;-51
2022/04/09 14:48:00;;;;;;;3.47;1.77;;;;;;;;;;4941919;28;20450;-51
2022/04/09 14:50:27;;;;;;;5.03;2.07;;;;;;;;;;4935599;28;20462;-52
2022/04/09 14:52:53;;;;;;;3.57;1.87;;;;;;;;;;4906940;28;20458;-52
2022/04/09 14:55:19;;;;;;;4.33;1.90;;;;;;;;;;4945815;28;20451;-51
2022/04/09 14:57:45;;;;;;;7.27;2.10;;;;;;;;;;4931523;28;20455;-53
2022/04/09 15:00:12;;;;;;;6.47;1.90;;;;;;;;;;4945992;28;20468;-54
2022/04/09 15:02:38;;;;;;;4.60;1.93;;;;;;;;;;4942778;28;20490;-52
2022/04/09 15:05:06;;;;;;;6.03;3.00;;;;;;;;;;4949161;28;20504;-52
2022/04/09 15:07:32;;;;;;;2.03;1.70;;;;;;;;;;4925490;28;20459;-52
2022/04/09 15:09:58;;;;;;;2.47;1.60;;;;;;;;;;4948089;28;20478;-52